Datum - Zeit
Temperatur 2mTemperatur 5cmTaupunktFeuchteSolar Wind aus Richtung WindböenLuftdruck (QFF)RegenRegenstärkeTrend
25.05.2024 - 00.00Uhr11.5 °C10 °C89.0 %2.3 km/hWesten4.7 km/h1009.3 hPa0.0 mm0.0 mm/hwechselhaft
25.05.2024 - 00.05Uhr11.3 °C10 °C89.0 %2.8 km/hWesten4.7 km/h1013.5 hPa0.0 mm0.0 mm/hwechselhaft
25.05.2024 - 00.10Uhr11.3 °C10 °C89.0 %2.6 km/hWesten4.7 km/h1012.0 hPa0.0 mm0.0 mm/hwechselhaft
25.05.2024 - 00.15Uhr11.3 °C10 °C89.0 %0.7 km/hWesten3.2 km/h1012.9 hPa0.0 mm0.0 mm/hwechselhaft
25.05.2024 - 00.20Uhr11.0 °C9 °C88.8 %0.0 km/hWesten0.0 km/h1012.9 hPa0.0 mm0.0 mm/hwechselhaft
25.05.2024 - 00.25Uhr10.6 °C9 °C89.5 %0.4 km/hWesten3.2 km/h1009.3 hPa0.0 mm0.0 mm/hwechselhaft
25.05.2024 - 00.30Uhr10.6 °C9 °C90.0 %1.6 km/hWesten4.7 km/h1013.5 hPa0.0 mm0.0 mm/hwechselhaft
25.05.2024 - 00.35Uhr10.4 °C9 °C90.7 %4.2 km/hWesten6.5 km/h1013.5 hPa0.0 mm0.0 mm/hwechselhaft
25.05.2024 - 00.40Uhr10.5 °C9 °C91.0 %4.7 km/hWesten9.7 km/h1011.9 hPa0.0 mm0.0 mm/hwechselhaft
25.05.2024 - 00.45Uhr10.6 °C9 °C90.7 %3.2 km/hWest-NW6.5 km/h1013.4 hPa0.0 mm0.0 mm/hwechselhaft
25.05.2024 - 00.50Uhr10.4 °C9 °C90.0 %1.0 km/hWest-NW3.2 km/h1010.8 hPa0.0 mm0.0 mm/hwechselhaft
25.05.2024 - 00.55Uhr10.0 °C8 °C90.0 %2.2 km/hWest-NW3.2 km/h1014.8 hPa0.0 mm0.0 mm/hwechselhaft
25.05.2024 - 01.00Uhr9.6 °C8 °C90.5 %2.2 km/hWest-NW4.7 km/h1015.4 hPa0.0 mm0.0 mm/hwechselhaft
25.05.2024 - 01.05Uhr9.7 °C8 °C91.1 %0.2 km/hSüdwesten1.4 km/h1015.0 hPa0.0 mm0.0 mm/hwechselhaft
25.05.2024 - 01.10Uhr9.7 °C8 °C91.0 %0.0 km/hSüdwesten1.4 km/h1011.9 hPa0.0 mm0.0 mm/hwechselhaft
25.05.2024 - 01.15Uhr9.4 °C8 °C91.0 %0.6 km/hSüdwesten3.2 km/h1011.8 hPa0.0 mm0.0 mm/hwechselhaft
25.05.2024 - 01.20Uhr9.2 °C8 °C91.1 %4.0 km/hSüdwesten6.5 km/h1013.4 hPa0.0 mm0.0 mm/hwechselhaft
25.05.2024 - 01.25Uhr9.3 °C8 °C91.7 %1.5 km/hSüd-SO6.5 km/h1012.7 hPa0.0 mm0.0 mm/hwechselhaft
25.05.2024 - 01.30Uhr9.1 °C8 °C91.3 %1.1 km/hSüd-SO4.7 km/h1011.9 hPa0.0 mm0.0 mm/hwechselhaft
25.05.2024 - 01.35Uhr9.2 °C8 °C91.6 %3.3 km/hSüd-SO6.5 km/h1011.9 hPa0.0 mm0.0 mm/hwechselhaft
25.05.2024 - 01.40Uhr9.2 °C8 °C91.0 %3.1 km/hSüd-SO6.5 km/h1012.7 hPa0.0 mm0.0 mm/hwechselhaft
25.05.2024 - 01.45Uhr9.3 °C8 °C91.4 %4.0 km/hWest-SW7.9 km/h1010.8 hPa0.0 mm0.0 mm/hwechselhaft
25.05.2024 - 01.50Uhr9.2 °C8 °C91.0 %3.2 km/hSüd-SW6.5 km/h1012.7 hPa0.0 mm0.0 mm/hwechselhaft
25.05.2024 - 01.55Uhr9.2 °C8 °C91.0 %2.3 km/hSüd-SW4.7 km/h1011.8 hPa0.0 mm0.0 mm/hwechselhaft
25.05.2024 - 02.00Uhr9.1 °C8 °C91.0 %2.2 km/hSüd-SW4.7 km/h1011.8 hPa0.0 mm0.0 mm/hwechselhaft
25.05.2024 - 02.05Uhr9.1 °C8 °C91.0 %2.9 km/hSüd-SW6.5 km/h1011.8 hPa0.0 mm0.0 mm/hwechselhaft
25.05.2024 - 02.10Uhr8.7 °C7 °C91.0 %2.6 km/hSüdosten4.7 km/h1013.4 hPa0.0 mm0.0 mm/hwechselhaft
25.05.2024 - 02.15Uhr8.6 °C7 °C91.6 %3.5 km/hSüd-SO6.5 km/h1013.3 hPa0.0 mm0.0 mm/hwechselhaft
25.05.2024 - 02.20Uhr8.6 °C7 °C91.8 %1.0 km/hSüd-SO3.2 km/h1011.8 hPa0.0 mm0.0 mm/hwechselhaft
25.05.2024 - 02.25Uhr8.7 °C8 °C92.0 %2.2 km/hWest-SW4.7 km/h1013.3 hPa0.0 mm0.0 mm/hwechselhaft
25.05.2024 - 02.30Uhr8.6 °C7 °C91.8 %1.8 km/hSüdwesten4.7 km/h1011.8 hPa0.0 mm0.0 mm/hwechselhaft
25.05.2024 - 02.35Uhr8.5 °C7 °C91.5 %3.3 km/hSüden6.5 km/h1011.8 hPa0.0 mm0.0 mm/hwechselhaft
25.05.2024 - 02.40Uhr8.6 °C7 °C92.0 %2.1 km/hWesten4.7 km/h1013.3 hPa0.0 mm0.0 mm/hwechselhaft
25.05.2024 - 02.45Uhr8.6 °C7 °C91.4 %0.9 km/hWesten4.7 km/h1010.7 hPa0.0 mm0.0 mm/hwechselhaft
25.05.2024 - 02.50Uhr8.3 °C7 °C91.2 %4.3 km/hSüd-SW9.7 km/h1011.8 hPa0.0 mm0.0 mm/hwechselhaft
25.05.2024 - 02.55Uhr8.3 °C7 °C91.9 %1.7 km/hSüdwesten4.7 km/h1011.8 hPa0.0 mm0.0 mm/hwechselhaft
25.05.2024 - 03.00Uhr8.3 °C7 °C92.0 %3.2 km/hWesten6.5 km/h1013.3 hPa0.0 mm0.0 mm/hwechselhaft
25.05.2024 - 03.05Uhr8.3 °C7 °C91.0 %1.4 km/hSüd-SW4.7 km/h1013.3 hPa0.0 mm0.0 mm/hwechselhaft
25.05.2024 - 03.10Uhr8.2 °C7 °C91.1 %4.2 km/hWest-SW7.9 km/h1011.8 hPa0.0 mm0.0 mm/hwechselhaft
25.05.2024 - 03.15Uhr8.5 °C7 °C91.8 %3.7 km/hSüd-SW9.7 km/h1012.6 hPa0.0 mm0.0 mm/hwechselhaft
25.05.2024 - 03.20Uhr8.6 °C7 °C91.0 %3.2 km/hSüdwesten6.5 km/h1012.6 hPa0.0 mm0.0 mm/hwechselhaft
25.05.2024 - 03.25Uhr8.8 °C7 °C91.0 %3.0 km/hWest-SW7.9 km/h1012.6 hPa0.0 mm0.0 mm/hwechselhaft
25.05.2024 - 03.30Uhr8.8 °C7 °C90.8 %1.9 km/hWest-SW4.7 km/h1012.6 hPa0.0 mm0.0 mm/hwechselhaft
25.05.2024 - 03.35Uhr8.8 °C7 °C90.1 %0.0 km/hWest-SW0.0 km/h1013.2 hPa0.0 mm0.0 mm/hwechselhaft
25.05.2024 - 03.40Uhr8.8 °C7 °C90.0 %2.1 km/hWest-SW7.9 km/h1010.6 hPa0.0 mm0.0 mm/hwechselhaft
25.05.2024 - 03.45Uhr8.9 °C7 °C90.0 %3.9 km/hSüdwesten6.5 km/h1012.6 hPa0.0 mm0.0 mm/hwechselhaft
25.05.2024 - 03.50Uhr8.9 °C7 °C89.8 %6.4 km/hSüd-SW11.2 km/h1011.7 hPa0.0 mm0.0 mm/hwechselhaft
25.05.2024 - 03.55Uhr9.0 °C7 °C89.4 %3.3 km/hSüd-SW11.2 km/h1010.5 hPa0.0 mm0.0 mm/hwechselhaft
25.05.2024 - 04.00Uhr8.8 °C7 °C89.0 %1.0 km/hSüdwesten4.7 km/h1011.7 hPa0.0 mm0.0 mm/hwechselhaft
25.05.2024 - 04.05Uhr8.4 °C7 °C89.2 %0.4 km/hSüden3.2 km/h1013.2 hPa0.0 mm0.0 mm/hwechselhaft
25.05.2024 - 04.10Uhr8.2 °C7 °C90.0 %0.0 km/hSüden0.0 km/h1012.5 hPa0.0 mm0.0 mm/hwechselhaft
25.05.2024 - 04.15Uhr8.2 °C7 °C90.0 %0.4 km/hSüd-SW1.4 km/h1012.6 hPa0.0 mm0.0 mm/hwechselhaft
25.05.2024 - 04.20Uhr8.1 °C7 °C90.0 %1.1 km/hSüd-SW3.2 km/h1012.6 hPa0.0 mm0.0 mm/hwechselhaft
25.05.2024 - 04.25Uhr7.9 °C6 °C90.5 %0.1 km/hOsten1.4 km/h1011.8 hPa0.0 mm0.0 mm/hwechselhaft
25.05.2024 - 04.30Uhr8.0 °C7 °C91.0 %0.4 km/hOsten3.2 km/h1011.8 hPa0.0 mm0.0 mm/hwechselhaft
25.05.2024 - 04.35Uhr7.9 °C6 °C91.0 %0.2 km/hNordosten1.4 km/h1011.8 hPa0.0 mm0.0 mm/hwechselhaft
25.05.2024 - 04.40Uhr7.7 °C6 °C91.0 %0.5 km/hNordosten1.4 km/h1013.3 hPa0.0 mm0.0 mm/hwechselhaft
25.05.2024 - 04.45Uhr7.8 °C6 °C91.0 %3.1 km/hNordwesten4.7 km/h1012.7 hPa0.0 mm0.0 mm/hwechselhaft
25.05.2024 - 04.50Uhr7.8 °C6 °C91.2 %4.5 km/hWesten6.5 km/h1009.1 hPa0.0 mm0.0 mm/hwechselhaft
25.05.2024 - 04.55Uhr8.2 °C7 °C91.2 %3.5 km/hWest-NW4.7 km/h1011.9 hPa0.0 mm0.0 mm/hwechselhaft
25.05.2024 - 05.00Uhr8.1 °C7 °C91.0 %1.9 km/hWesten4.7 km/h1009.1 hPa0.0 mm0.0 mm/hwechselhaft
25.05.2024 - 05.05Uhr7.6 °C6 °C90.0 %0.4 km/hWesten1.4 km/h1012.7 hPa0.0 mm0.0 mm/hwechselhaft
25.05.2024 - 05.10Uhr7.4 °C6 °C90.9 %1.0 km/hWesten4.7 km/h1011.8 hPa0.0 mm0.0 mm/hwechselhaft
25.05.2024 - 05.15Uhr7.7 °C6 °C91.8 %1.1 km/hWesten4.7 km/h1012.7 hPa0.0 mm0.0 mm/hwechselhaft
25.05.2024 - 05.20Uhr7.8 °C6 °C91.0 %0.2 km/hWesten1.4 km/h1013.4 hPa0.0 mm0.0 mm/hwechselhaft
25.05.2024 - 05.25Uhr7.4 °C6 °C90.8 %1.8 km/hWesten3.2 km/h1011.9 hPa0.0 mm0.0 mm/hwechselhaft
25.05.2024 - 05.30Uhr7.2 °C6 °C91.7 %0.3 km/hWesten1.4 km/h1012.8 hPa0.0 mm0.0 mm/hwechselhaft
25.05.2024 - 05.35Uhr7.2 °C6 °C91.9 %0.3 km/hWesten3.2 km/h1012.0 hPa0.0 mm0.0 mm/hwechselhaft
25.05.2024 - 05.40Uhr7.2 °C6 °C92.0 %1.7 km/hWesten3.2 km/h1012.9 hPa0.0 mm0.0 mm/hwechselhaft
25.05.2024 - 05.45Uhr7.2 °C6 °C92.2 %2.7 km/hSüd-SO4.7 km/h1010.9 hPa0.0 mm0.0 mm/hwechselhaft
25.05.2024 - 05.50Uhr7.4 °C6 °C92.6 %0.2 km/hSüden1.4 km/h1013.5 hPa0.0 mm0.0 mm/hwechselhaft
25.05.2024 - 05.55Uhr7.3 °C6 °C92.0 %0.0 km/hSüden1.4 km/h1010.9 hPa0.0 mm0.0 mm/hwechselhaft
25.05.2024 - 06.00Uhr7.4 °C6 °C92.3 %0.0 km/hSüden0.0 km/h1013.5 hPa0.0 mm0.0 mm/hwechselhaft
25.05.2024 - 06.05Uhr7.5 °C6 °C93.0 %0.0 km/hSüden0.0 km/h1010.9 hPa0.0 mm0.0 mm/hwechselhaft
25.05.2024 - 06.10Uhr7.6 °C7 °C93.0 %0.2 km/hSüden1.4 km/h1012.9 hPa0.0 mm0.0 mm/hwechselhaft
25.05.2024 - 06.15Uhr7.8 °C7 °C93.0 %1.5 km/hSüden3.2 km/h1009.3 hPa0.0 mm0.0 mm/hwechselhaft
25.05.2024 - 06.20Uhr8.1 °C7 °C93.0 %0.7 km/hWest-SW4.7 km/h1013.6 hPa0.0 mm0.0 mm/hwechselhaft
25.05.2024 - 06.25Uhr8.3 °C7 °C92.7 %0.3 km/hWest-SW1.4 km/h1010.9 hPa0.0 mm0.0 mm/hwechselhaft
25.05.2024 - 06.30Uhr8.3 °C7 °C92.2 %1.4 km/hWest-NW3.2 km/h1012.1 hPa0.0 mm0.0 mm/hwechselhaft
25.05.2024 - 06.35Uhr8.3 °C7 °C92.0 %0.1 km/hWest-NW1.4 km/h1012.9 hPa0.0 mm0.0 mm/hwechselhaft
25.05.2024 - 06.40Uhr8.4 °C7 °C92.0 %0.0 km/hWest-NW1.4 km/h1013.5 hPa0.0 mm0.0 mm/hwechselhaft
25.05.2024 - 06.45Uhr8.4 °C7 °C92.0 %0.0 km/hWest-NW0.0 km/h1013.5 hPa0.0 mm0.0 mm/hwechselhaft
25.05.2024 - 06.50Uhr8.6 °C7 °C92.4 %0.0 km/hWest-NW0.0 km/h1009.2 hPa0.0 mm0.0 mm/hwechselhaft
25.05.2024 - 06.55Uhr8.8 °C8 °C92.7 %0.0 km/hWest-NW0.0 km/h1012.0 hPa0.0 mm0.0 mm/hwechselhaft
25.05.2024 - 07.00Uhr8.9 °C8 °C93.0 %1.6 km/hWest-NW3.2 km/h1012.9 hPa0.0 mm0.0 mm/hwechselhaft
25.05.2024 - 07.05Uhr9.2 °C8 °C93.0 %0.6 km/hSüden3.2 km/h1012.9 hPa0.0 mm0.0 mm/hwechselhaft
25.05.2024 - 07.10Uhr9.5 °C8 °C92.5 %0.6 km/hSüden3.2 km/h1012.9 hPa0.0 mm0.0 mm/hwechselhaft
25.05.2024 - 07.15Uhr9.7 °C8 °C92.0 %0.5 km/hWest-SW1.4 km/h1012.9 hPa0.0 mm0.0 mm/hwechselhaft
25.05.2024 - 07.20Uhr10.1 °C9 °C92.0 %0.4 km/hWesten1.4 km/h1013.6 hPa0.0 mm0.0 mm/hwechselhaft
25.05.2024 - 07.25Uhr10.8 °C10 °C92.2 %0.1 km/hWesten1.4 km/h1014.2 hPa0.0 mm0.0 mm/hwechselhaft
25.05.2024 - 07.30Uhr11.3 °C10 °C91.6 %0.2 km/hWesten1.4 km/h1013.0 hPa0.0 mm0.0 mm/hwechselhaft
25.05.2024 - 07.35Uhr11.7 °C10 °C91.1 %1.4 km/hWesten3.2 km/h1009.5 hPa0.0 mm0.0 mm/hwechselhaft
25.05.2024 - 07.40Uhr12.2 °C11 °C89.8 %1.4 km/hNordwesten4.7 km/h1013.0 hPa0.0 mm0.0 mm/hwechselhaft
25.05.2024 - 07.45Uhr12.4 °C10 °C88.3 %3.4 km/hNordosten6.5 km/h1013.8 hPa0.0 mm0.0 mm/hwechselhaft
25.05.2024 - 07.50Uhr12.8 °C11 °C88.1 %2.4 km/hNordosten4.7 km/h1012.2 hPa0.0 mm0.0 mm/hwechselhaft
25.05.2024 - 07.55Uhr13.1 °C11 °C87.2 %5.3 km/hNordosten13.0 km/h1014.2 hPa0.0 mm0.0 mm/hwechselhaft
25.05.2024 - 08.00Uhr13.3 °C11 °C86.6 %5.8 km/hOst-NO11.2 km/h1013.6 hPa0.0 mm0.0 mm/hwechselhaft
25.05.2024 - 08.05Uhr13.2 °C11 °C86.1 %5.4 km/hNordosten11.2 km/h1013.0 hPa0.0 mm0.0 mm/hwechselhaft
25.05.2024 - 08.10Uhr13.6 °C11 °C85.6 %6.2 km/hNordosten13.0 km/h1012.2 hPa0.0 mm0.0 mm/hwechselhaft
25.05.2024 - 08.15Uhr13.6 °C11 °C85.0 %7.7 km/hNordosten13.0 km/h1012.1 hPa0.0 mm0.0 mm/hwechselhaft
25.05.2024 - 08.20Uhr13.7 °C11 °C84.4 %4.9 km/hNordosten7.9 km/h1013.1 hPa0.0 mm0.0 mm/hwechselhaft
25.05.2024 - 08.25Uhr14.1 °C12 °C85.2 %5.0 km/hNordosten9.7 km/h1013.0 hPa0.0 mm0.0 mm/hwechselhaft
25.05.2024 - 08.30Uhr14.6 °C12 °C83.6 %7.1 km/hNord-NO13.0 km/h1012.2 hPa0.0 mm0.0 mm/hwechselhaft
25.05.2024 - 08.35Uhr14.7 °C12 °C83.5 %5.8 km/hNordosten9.7 km/h1013.7 hPa0.0 mm0.0 mm/hwechselhaft
25.05.2024 - 08.40Uhr14.5 °C12 °C82.7 %6.4 km/hOst-NO11.2 km/h1014.2 hPa0.0 mm0.0 mm/hwechselhaft
25.05.2024 - 08.45Uhr14.6 °C12 °C83.3 %6.7 km/hNordosten13.0 km/h1012.3 hPa0.0 mm0.0 mm/hwechselhaft
25.05.2024 - 08.50Uhr14.9 °C12 °C82.8 %5.6 km/hNordosten11.2 km/h1012.2 hPa0.0 mm0.0 mm/hwechselhaft
25.05.2024 - 08.55Uhr14.5 °C12 °C82.5 %5.4 km/hNord-NO13.0 km/h1012.3 hPa0.0 mm0.0 mm/hwechselhaft
25.05.2024 - 09.00Uhr14.3 °C12 °C83.7 %7.2 km/hNord-NO11.2 km/h1014.2 hPa0.0 mm0.0 mm/hwechselhaft
25.05.2024 - 09.05Uhr14.4 °C12 °C82.8 %7.9 km/hNorden13.0 km/h1013.1 hPa0.0 mm0.0 mm/hwechselhaft
25.05.2024 - 09.10Uhr14.1 °C11 °C82.2 %7.9 km/hNord-NO11.2 km/h1012.2 hPa0.0 mm0.0 mm/hwechselhaft
25.05.2024 - 09.15Uhr13.8 °C11 °C83.0 %8.4 km/hNorden16.2 km/h1013.1 hPa0.0 mm0.0 mm/hwechselhaft
25.05.2024 - 09.20Uhr13.9 °C11 °C83.1 %5.9 km/hNord-NO13.0 km/h1011.1 hPa0.0 mm0.0 mm/hwechselhaft
25.05.2024 - 09.25Uhr14.1 °C11 °C82.3 %9.7 km/hNord-NO14.4 km/h1012.3 hPa0.0 mm0.0 mm/hwechselhaft
25.05.2024 - 09.30Uhr13.8 °C11 °C81.5 %8.4 km/hNorden13.0 km/h1013.8 hPa0.0 mm0.0 mm/hwechselhaft
25.05.2024 - 09.35Uhr14.0 °C11 °C81.8 %5.6 km/hNorden9.7 km/h1013.8 hPa0.0 mm0.0 mm/hwechselhaft
25.05.2024 - 09.40Uhr14.4 °C11 °C82.6 %6.4 km/hNorden13.0 km/h1009.5 hPa0.0 mm0.0 mm/hwechselhaft
25.05.2024 - 09.45Uhr14.4 °C11 °C81.0 %4.7 km/hNord-NW13.0 km/h1012.3 hPa0.0 mm0.0 mm/hwechselhaft
25.05.2024 - 09.50Uhr14.4 °C11 °C80.9 %6.6 km/hNord-NO11.2 km/h1011.1 hPa0.0 mm0.0 mm/hwechselhaft
25.05.2024 - 09.55Uhr14.0 °C11 °C80.7 %7.3 km/hNorden13.0 km/h1012.2 hPa0.0 mm0.0 mm/hwechselhaft
25.05.2024 - 10.00Uhr13.8 °C11 °C80.6 %6.9 km/hNord-NW13.0 km/h1012.3 hPa0.0 mm0.0 mm/hsonnig
25.05.2024 - 10.05Uhr13.8 °C11 °C82.8 %4.5 km/hNord-NO7.9 km/h1013.8 hPa0.0 mm0.0 mm/hsonnig
25.05.2024 - 10.10Uhr13.7 °C11 °C81.9 %5.7 km/hNorden9.7 km/h1009.6 hPa0.0 mm0.0 mm/hsonnig
25.05.2024 - 10.15Uhr13.6 °C11 °C82.0 %4.8 km/hNorden9.7 km/h1009.6 hPa0.0 mm0.0 mm/hsonnig
25.05.2024 - 10.20Uhr13.8 °C11 °C83.1 %4.0 km/hNord-NO9.7 km/h1012.3 hPa0.0 mm0.0 mm/hsonnig
25.05.2024 - 10.25Uhr14.2 °C11 °C81.5 %5.4 km/hNorden9.7 km/h1013.1 hPa0.0 mm0.0 mm/hsonnig
25.05.2024 - 10.30Uhr14.4 °C11 °C82.8 %5.8 km/hNorden9.7 km/h1012.3 hPa0.0 mm0.0 mm/hsonnig
25.05.2024 - 10.35Uhr14.6 °C12 °C82.3 %4.6 km/hNord-NO9.7 km/h1014.4 hPa0.0 mm0.0 mm/hsonnig
25.05.2024 - 10.40Uhr14.5 °C12 °C82.6 %3.4 km/hNordosten7.9 km/h1012.3 hPa0.0 mm0.0 mm/hsonnig
25.05.2024 - 10.45Uhr15.0 °C12 °C82.1 %3.3 km/hNord-NW6.5 km/h1013.1 hPa0.0 mm0.0 mm/hsonnig
25.05.2024 - 10.50Uhr15.6 °C12 °C79.0 %4.3 km/hNord-NO9.7 km/h1013.1 hPa0.0 mm0.0 mm/hsonnig
25.05.2024 - 10.55Uhr15.2 °C11 °C78.0 %4.5 km/hNorden9.7 km/h1012.3 hPa0.0 mm0.0 mm/hsonnig
25.05.2024 - 11.00Uhr14.8 °C11 °C79.7 %5.1 km/hNord-NO9.7 km/h1011.2 hPa0.0 mm0.0 mm/hwechselhaft
25.05.2024 - 11.05Uhr15.2 °C12 °C79.8 %4.5 km/hNord-NO9.7 km/h1011.2 hPa0.0 mm0.0 mm/hwechselhaft
25.05.2024 - 11.10Uhr15.6 °C12 °C79.3 %5.0 km/hNord-NO9.7 km/h1013.1 hPa0.0 mm0.0 mm/hwechselhaft
25.05.2024 - 11.15Uhr15.9 °C12 °C78.6 %5.2 km/hNord-NO11.2 km/h1013.8 hPa0.0 mm0.0 mm/hwechselhaft
25.05.2024 - 11.20Uhr15.9 °C12 °C75.4 %6.6 km/hNord-NO9.7 km/h1012.3 hPa0.0 mm0.0 mm/hwechselhaft
25.05.2024 - 11.25Uhr16.1 °C12 °C78.2 %6.8 km/hNord-NO14.4 km/h1012.2 hPa0.0 mm0.0 mm/hwechselhaft
25.05.2024 - 11.30Uhr16.3 °C12 °C77.8 %6.8 km/hNord-NO14.4 km/h1013.7 hPa0.0 mm0.0 mm/hwechselhaft
25.05.2024 - 11.35Uhr16.4 °C12 °C76.0 %5.7 km/hOst-NO11.2 km/h1013.8 hPa0.0 mm0.0 mm/hwechselhaft
25.05.2024 - 11.40Uhr16.5 °C13 °C78.7 %6.4 km/hNord-NO9.7 km/h1011.0 hPa0.0 mm0.0 mm/hwechselhaft
25.05.2024 - 11.45Uhr16.5 °C12 °C76.9 %6.1 km/hNord-NO11.2 km/h1012.1 hPa0.0 mm0.0 mm/hwechselhaft
25.05.2024 - 11.50Uhr16.9 °C13 °C78.1 %8.2 km/hNord-NO13.0 km/h1013.0 hPa0.0 mm0.0 mm/hwechselhaft
25.05.2024 - 11.55Uhr16.8 °C12 °C75.7 %8.5 km/hNord-NO14.4 km/h1013.6 hPa0.0 mm0.0 mm/hwechselhaft
25.05.2024 - 12.00Uhr16.7 °C12 °C75.4 %8.1 km/hNorden11.2 km/h1012.9 hPa0.0 mm0.0 mm/hwechselhaft
25.05.2024 - 12.05Uhr16.8 °C12 °C74.9 %7.4 km/hNord-NO13.0 km/h1012.0 hPa0.0 mm0.0 mm/hwechselhaft
25.05.2024 - 12.10Uhr17.0 °C13 °C75.5 %6.7 km/hNordosten11.2 km/h1013.5 hPa0.0 mm0.0 mm/hwechselhaft
25.05.2024 - 12.15Uhr16.7 °C12 °C72.6 %6.9 km/hNordosten13.0 km/h1011.9 hPa0.0 mm0.0 mm/hwechselhaft
25.05.2024 - 12.20Uhr16.8 °C12 °C76.1 %7.9 km/hNorden14.4 km/h1012.8 hPa0.0 mm0.0 mm/hwechselhaft
25.05.2024 - 12.25Uhr16.4 °C12 °C73.0 %7.7 km/hNord-NO13.0 km/h1011.9 hPa0.0 mm0.0 mm/hwechselhaft
25.05.2024 - 12.30Uhr16.0 °C12 °C74.7 %7.3 km/hNord-NO14.4 km/h1012.8 hPa0.0 mm0.0 mm/hwechselhaft
25.05.2024 - 12.35Uhr16.0 °C12 °C76.9 %5.9 km/hNordosten11.2 km/h1012.8 hPa0.0 mm0.0 mm/hwechselhaft
25.05.2024 - 12.40Uhr16.0 °C12 °C76.3 %6.2 km/hNorden9.7 km/h1010.7 hPa0.0 mm0.0 mm/hwechselhaft
25.05.2024 - 12.45Uhr15.7 °C12 °C77.1 %5.0 km/hNord-NO9.7 km/h1013.4 hPa0.0 mm0.0 mm/hwechselhaft
25.05.2024 - 12.50Uhr15.6 °C12 °C77.0 %6.1 km/hNord-NO9.7 km/h1011.9 hPa0.0 mm0.0 mm/hwechselhaft
25.05.2024 - 12.55Uhr15.5 °C11 °C76.3 %4.4 km/hNorden9.7 km/h1012.7 hPa0.0 mm0.0 mm/hwechselhaft
25.05.2024 - 13.00Uhr15.6 °C12 °C76.6 %5.6 km/hNorden11.2 km/h1012.7 hPa0.0 mm0.0 mm/hwechselhaft
25.05.2024 - 13.05Uhr15.6 °C11 °C76.0 %3.7 km/hNord-NO7.9 km/h1011.8 hPa0.0 mm0.0 mm/hwechselhaft
25.05.2024 - 13.10Uhr15.3 °C11 °C73.8 %1.8 km/hNordosten4.7 km/h1011.8 hPa0.0 mm0.0 mm/hwechselhaft
25.05.2024 - 13.15Uhr15.4 °C11 °C75.1 %1.3 km/hNorden4.7 km/h1012.6 hPa0.0 mm0.0 mm/hwechselhaft
25.05.2024 - 13.20Uhr15.5 °C11 °C75.8 %2.2 km/hNord-NW6.5 km/h1013.2 hPa0.0 mm0.0 mm/hwechselhaft
25.05.2024 - 13.25Uhr16.1 °C12 °C76.2 %3.3 km/hNordosten7.9 km/h1010.6 hPa0.0 mm0.0 mm/hwechselhaft
25.05.2024 - 13.30Uhr16.0 °C12 °C75.8 %3.3 km/hNord-NO4.7 km/h1012.5 hPa0.0 mm0.0 mm/hwechselhaft
25.05.2024 - 13.35Uhr16.1 °C12 °C75.6 %4.1 km/hNord-NO7.9 km/h1013.0 hPa0.0 mm0.0 mm/hwechselhaft
25.05.2024 - 13.40Uhr16.2 °C12 °C76.0 %2.9 km/hNorden6.5 km/h1012.4 hPa0.0 mm0.0 mm/hwechselhaft
25.05.2024 - 13.45Uhr16.4 °C12 °C76.2 %1.0 km/hNorden3.2 km/h1011.5 hPa0.0 mm0.0 mm/hwechselhaft
25.05.2024 - 13.50Uhr16.6 °C12 °C73.9 %2.2 km/hNorden7.9 km/h1010.3 hPa0.0 mm0.0 mm/hwechselhaft
25.05.2024 - 13.55Uhr16.9 °C12 °C71.4 %2.2 km/hNorden4.7 km/h1012.2 hPa0.0 mm0.0 mm/hwechselhaft
25.05.2024 - 14.00Uhr16.9 °C12 °C71.2 %3.1 km/hNord-NO7.9 km/h1012.1 hPa0.0 mm0.0 mm/hwechselhaft
25.05.2024 - 14.05Uhr17.2 °C12 °C70.6 %2.9 km/hNorden6.5 km/h1012.1 hPa0.0 mm0.0 mm/hwechselhaft
25.05.2024 - 14.10Uhr17.8 °C13 °C71.6 %4.2 km/hNordosten7.9 km/h1012.8 hPa0.0 mm0.0 mm/hwechselhaft
25.05.2024 - 14.15Uhr18.4 °C13 °C71.6 %3.8 km/hNorden9.7 km/h1011.2 hPa0.0 mm0.0 mm/hwechselhaft
25.05.2024 - 14.20Uhr18.1 °C12 °C69.0 %2.4 km/hNordosten6.5 km/h1011.1 hPa0.0 mm0.0 mm/hwechselhaft
25.05.2024 - 14.25Uhr17.8 °C12 °C69.2 %2.8 km/hNorden6.5 km/h1011.1 hPa0.0 mm0.0 mm/hwechselhaft
25.05.2024 - 14.30Uhr17.7 °C11 °C63.0 %2.1 km/hNordwesten6.5 km/h1011.9 hPa0.0 mm0.0 mm/hwechselhaft
25.05.2024 - 14.35Uhr17.5 °C10 °C62.6 %1.8 km/hOsten4.7 km/h1011.9 hPa0.0 mm0.0 mm/hwechselhaft
25.05.2024 - 14.40Uhr18.3 °C12 °C65.8 %2.7 km/hWest-NW6.5 km/h1011.0 hPa0.0 mm0.0 mm/hwechselhaft
25.05.2024 - 14.45Uhr18.9 °C12 °C64.8 %2.2 km/hNord-NO6.5 km/h1011.8 hPa0.0 mm0.0 mm/hwechselhaft
25.05.2024 - 14.50Uhr19.4 °C12 °C62.6 %4.7 km/hNordosten9.7 km/h1010.9 hPa0.0 mm0.0 mm/hwechselhaft
25.05.2024 - 14.55Uhr19.4 °C11 °C59.1 %5.6 km/hNorden11.2 km/h1012.4 hPa0.0 mm0.0 mm/hwechselhaft
25.05.2024 - 15.00Uhr19.6 °C11 °C56.6 %4.3 km/hNorden9.7 km/h1011.7 hPa0.0 mm0.0 mm/hwechselhaft
25.05.2024 - 15.05Uhr19.8 °C11 °C57.5 %4.9 km/hNord-NO7.9 km/h1011.6 hPa0.0 mm0.0 mm/hwechselhaft
25.05.2024 - 15.10Uhr20.2 °C12 °C60.1 %5.4 km/hNord-NO9.7 km/h1010.8 hPa0.0 mm0.0 mm/hwechselhaft
25.05.2024 - 15.15Uhr20.4 °C12 °C56.8 %5.3 km/hNordosten9.7 km/h1012.3 hPa0.0 mm0.0 mm/hwechselhaft
25.05.2024 - 15.20Uhr20.3 °C11 °C55.2 %5.3 km/hNordosten9.7 km/h1011.6 hPa0.0 mm0.0 mm/hwechselhaft
25.05.2024 - 15.25Uhr20.0 °C10 °C51.6 %3.7 km/hNord-NO7.9 km/h1010.8 hPa0.0 mm0.0 mm/hwechselhaft
25.05.2024 - 15.30Uhr19.7 °C9 °C50.8 %3.8 km/hNordosten9.7 km/h1010.8 hPa0.0 mm0.0 mm/hwechselhaft
25.05.2024 - 15.35Uhr20.4 °C11 °C53.1 %5.0 km/hNord-NO7.9 km/h1012.2 hPa0.0 mm0.0 mm/hwechselhaft
25.05.2024 - 15.40Uhr20.3 °C9 °C49.1 %3.9 km/hNord-NO9.7 km/h1009.5 hPa0.0 mm0.0 mm/hwechselhaft
25.05.2024 - 15.45Uhr20.0 °C9 °C49.1 %4.8 km/hNord-NO9.7 km/h1010.6 hPa0.0 mm0.0 mm/hwechselhaft
25.05.2024 - 15.50Uhr20.4 °C10 °C52.8 %4.6 km/hNordosten7.9 km/h1012.1 hPa0.0 mm0.0 mm/hwechselhaft
25.05.2024 - 15.55Uhr20.2 °C10 °C51.7 %4.3 km/hNordosten9.7 km/h1011.5 hPa0.0 mm0.0 mm/hwechselhaft
25.05.2024 - 16.00Uhr19.9 °C10 °C54.1 %4.1 km/hNord-NO9.7 km/h1010.6 hPa0.0 mm0.0 mm/hwechselhaft
25.05.2024 - 16.05Uhr19.9 °C11 °C56.7 %5.1 km/hNord-NO9.7 km/h1010.6 hPa0.0 mm0.0 mm/hwechselhaft
25.05.2024 - 16.10Uhr20.4 °C11 °C55.7 %4.4 km/hNord-NO7.9 km/h1011.5 hPa0.0 mm0.0 mm/hwechselhaft
25.05.2024 - 16.15Uhr20.5 °C12 °C56.5 %4.5 km/hNord-NO9.7 km/h1012.1 hPa0.0 mm0.0 mm/hwechselhaft
25.05.2024 - 16.20Uhr20.7 °C12 °C58.2 %4.4 km/hNord-NO7.9 km/h1011.5 hPa0.0 mm0.0 mm/hwechselhaft
25.05.2024 - 16.25Uhr20.9 °C11 °C55.0 %3.7 km/hNordosten6.5 km/h1010.6 hPa0.0 mm0.0 mm/hwechselhaft
25.05.2024 - 16.30Uhr20.3 °C11 °C54.9 %5.1 km/hNordosten7.9 km/h1010.5 hPa0.0 mm0.0 mm/hwechselhaft
25.05.2024 - 16.35Uhr20.5 °C12 °C57.9 %5.9 km/hNorden11.2 km/h1011.4 hPa0.0 mm0.0 mm/hwechselhaft
25.05.2024 - 16.40Uhr20.7 °C12 °C58.4 %5.8 km/hNorden9.7 km/h1011.4 hPa0.0 mm0.0 mm/hwechselhaft
25.05.2024 - 16.45Uhr21.1 °C13 °C58.7 %5.9 km/hNord-NO9.7 km/h1010.5 hPa0.0 mm0.0 mm/hwechselhaft
25.05.2024 - 16.50Uhr21.0 °C12 °C57.7 %6.6 km/hNordosten9.7 km/h1012.0 hPa0.0 mm0.0 mm/hwechselhaft
25.05.2024 - 16.55Uhr20.8 °C13 °C59.9 %5.0 km/hNordosten9.7 km/h1010.5 hPa0.0 mm0.0 mm/hwechselhaft
25.05.2024 - 17.00Uhr20.5 °C13 °C62.4 %9.2 km/hNordosten17.6 km/h1009.5 hPa0.0 mm0.0 mm/hwechselhaft
25.05.2024 - 17.05Uhr20.4 °C14 °C66.3 %8.1 km/hNordosten17.6 km/h1012.1 hPa0.0 mm0.0 mm/hwechselhaft
25.05.2024 - 17.10Uhr20.5 °C14 °C66.0 %7.9 km/hNordosten16.2 km/h1010.7 hPa0.0 mm0.0 mm/hwechselhaft
25.05.2024 - 17.15Uhr20.3 °C14 °C66.1 %7.2 km/hOst-NO13.0 km/h1012.2 hPa0.0 mm0.0 mm/hwechselhaft
25.05.2024 - 17.20Uhr20.2 °C14 °C67.6 %7.1 km/hNordosten14.4 km/h1012.2 hPa0.0 mm0.0 mm/hwechselhaft
25.05.2024 - 17.25Uhr20.4 °C14 °C66.3 %7.5 km/hNordosten16.2 km/h1009.5 hPa0.0 mm0.0 mm/hwechselhaft
25.05.2024 - 17.30Uhr19.8 °C13 °C65.3 %11.3 km/hNordosten20.9 km/h1010.6 hPa0.0 mm0.0 mm/hwechselhaft
25.05.2024 - 17.35Uhr19.2 °C12 °C64.9 %14.7 km/hNordosten25.9 km/h1012.1 hPa0.0 mm0.0 mm/hwechselhaft
25.05.2024 - 17.40Uhr19.0 °C12 °C64.8 %16.0 km/hNordosten22.7 km/h1007.9 hPa0.0 mm0.0 mm/hwechselhaft
25.05.2024 - 17.45Uhr18.6 °C12 °C65.3 %11.2 km/hOst-NO19.4 km/h1007.9 hPa0.0 mm0.0 mm/hwechselhaft
25.05.2024 - 17.50Uhr18.6 °C12 °C65.4 %12.9 km/hOst-NO19.4 km/h1011.5 hPa0.0 mm0.0 mm/hwechselhaft
25.05.2024 - 17.55Uhr18.7 °C12 °C64.9 %12.2 km/hNordosten22.7 km/h1011.5 hPa0.0 mm0.0 mm/hwechselhaft
25.05.2024 - 18.00Uhr18.9 °C12 °C64.8 %11.3 km/hNordosten19.4 km/h1010.7 hPa0.0 mm0.0 mm/hwechselhaft
25.05.2024 - 18.05Uhr18.9 °C12 °C64.0 %12.3 km/hNordosten19.4 km/h1012.1 hPa0.0 mm0.0 mm/hwechselhaft
25.05.2024 - 18.10Uhr18.9 °C12 °C63.3 %10.8 km/hNordosten17.6 km/h1012.1 hPa0.0 mm0.0 mm/hwechselhaft
25.05.2024 - 18.15Uhr18.6 °C12 °C63.8 %11.8 km/hOst-NO19.4 km/h1011.4 hPa0.0 mm0.0 mm/hwechselhaft
25.05.2024 - 18.20Uhr18.3 °C11 °C63.4 %11.0 km/hNordosten22.7 km/h1012.6 hPa0.0 mm0.0 mm/hwechselhaft
25.05.2024 - 18.25Uhr17.8 °C11 °C65.8 %10.0 km/hOst-NO17.6 km/h1011.4 hPa0.0 mm0.0 mm/hwechselhaft
25.05.2024 - 18.30Uhr17.1 °C11 °C66.9 %11.6 km/hOst-NO17.6 km/h1012.6 hPa0.0 mm0.0 mm/hwechselhaft
25.05.2024 - 18.35Uhr17.1 °C11 °C67.8 %12.5 km/hOst-NO19.4 km/h1010.6 hPa0.0 mm0.0 mm/hwechselhaft
25.05.2024 - 18.40Uhr17.1 °C11 °C68.2 %8.1 km/hOst-NO16.2 km/h1010.7 hPa0.0 mm0.0 mm/hwechselhaft
25.05.2024 - 18.45Uhr16.9 °C11 °C69.2 %7.9 km/hOst-NO14.4 km/h1012.2 hPa0.0 mm0.0 mm/hwechselhaft
25.05.2024 - 18.50Uhr16.9 °C11 °C69.2 %10.4 km/hOst-NO17.6 km/h1012.2 hPa0.0 mm0.0 mm/hwechselhaft
25.05.2024 - 18.55Uhr17.0 °C11 °C67.0 %10.1 km/hOst-NO16.2 km/h1012.3 hPa0.0 mm0.0 mm/hwechselhaft
25.05.2024 - 19.00Uhr16.9 °C10 °C65.8 %7.5 km/hOst-NO14.4 km/h1009.5 hPa0.0 mm0.0 mm/hwechselhaft
25.05.2024 - 19.05Uhr16.9 °C11 °C66.7 %9.7 km/hOst-NO16.2 km/h1011.5 hPa0.0 mm0.0 mm/hwechselhaft
25.05.2024 - 19.10Uhr16.7 °C11 °C67.8 %9.3 km/hOst-NO14.4 km/h1011.6 hPa0.0 mm0.0 mm/hwechselhaft
25.05.2024 - 19.15Uhr16.7 °C11 °C69.1 %9.5 km/hOst-NO14.4 km/h1011.6 hPa0.0 mm0.0 mm/hwechselhaft
25.05.2024 - 19.20Uhr16.7 °C11 °C68.9 %7.8 km/hOst-NO13.0 km/h1010.7 hPa0.0 mm0.0 mm/hwechselhaft
25.05.2024 - 19.25Uhr16.8 °C11 °C67.9 %9.1 km/hOst-NO17.6 km/h1009.6 hPa0.0 mm0.0 mm/hwechselhaft
25.05.2024 - 19.30Uhr16.8 °C10 °C65.8 %9.6 km/hOst-NO14.4 km/h1010.8 hPa0.0 mm0.0 mm/hwechselhaft
25.05.2024 - 19.35Uhr16.7 °C11 °C69.1 %8.0 km/hOst-NO14.4 km/h1011.7 hPa0.0 mm0.0 mm/hwechselhaft
25.05.2024 - 19.40Uhr16.6 °C11 °C70.5 %6.0 km/hOst-NO11.2 km/h1010.9 hPa0.0 mm0.0 mm/hwechselhaft
25.05.2024 - 19.45Uhr16.5 °C11 °C70.4 %6.3 km/hOst-NO13.0 km/h1012.3 hPa0.0 mm0.0 mm/hwechselhaft
25.05.2024 - 19.50Uhr16.3 °C11 °C71.7 %5.5 km/hNordosten11.2 km/h1011.7 hPa0.0 mm0.0 mm/hwechselhaft
25.05.2024 - 19.55Uhr16.3 °C11 °C72.8 %5.3 km/hNordosten9.7 km/h1011.6 hPa0.0 mm0.0 mm/hwechselhaft
25.05.2024 - 20.00Uhr16.2 °C12 °C73.8 %5.0 km/hNordosten7.9 km/h1009.6 hPa0.0 mm0.0 mm/hwechselhaft
25.05.2024 - 20.05Uhr16.0 °C11 °C74.0 %3.2 km/hNordosten6.5 km/h1011.6 hPa0.0 mm0.0 mm/hwechselhaft
25.05.2024 - 20.10Uhr15.9 °C11 °C74.7 %3.2 km/hOst-NO6.5 km/h1011.7 hPa0.0 mm0.0 mm/hwechselhaft
25.05.2024 - 20.15Uhr15.8 °C11 °C75.0 %3.1 km/hOst-NO6.5 km/h1009.7 hPa0.0 mm0.0 mm/hwechselhaft
25.05.2024 - 20.20Uhr15.6 °C11 °C75.0 %1.6 km/hOst-NO4.7 km/h1011.7 hPa0.0 mm0.0 mm/hwechselhaft
25.05.2024 - 20.25Uhr15.6 °C11 °C75.4 %1.6 km/hOsten3.2 km/h1011.7 hPa0.0 mm0.0 mm/hwechselhaft
25.05.2024 - 20.30Uhr15.6 °C12 °C76.7 %0.9 km/hOst-NO3.2 km/h1012.4 hPa0.0 mm0.0 mm/hwechselhaft
25.05.2024 - 20.35Uhr15.5 °C12 °C77.4 %0.8 km/hNord-NW3.2 km/h1013.3 hPa0.0 mm0.0 mm/hwechselhaft
25.05.2024 - 20.40Uhr15.6 °C11 °C76.2 %0.5 km/hNordwesten1.4 km/h1012.3 hPa0.0 mm0.0 mm/hwechselhaft
25.05.2024 - 20.45Uhr15.2 °C11 °C77.5 %1.7 km/hSüd-SW3.2 km/h1011.7 hPa0.0 mm0.0 mm/hwechselhaft
25.05.2024 - 20.50Uhr14.6 °C11 °C78.9 %2.5 km/hSüd-SW3.2 km/h1012.4 hPa0.0 mm0.0 mm/hwechselhaft
25.05.2024 - 20.55Uhr14.3 °C11 °C79.8 %1.4 km/hSüd-SW3.2 km/h1009.7 hPa0.0 mm0.0 mm/hwechselhaft
25.05.2024 - 21.00Uhr14.3 °C11 °C80.6 %0.3 km/hSüd-SW1.4 km/h1008.2 hPa0.0 mm0.0 mm/hwechselhaft
25.05.2024 - 21.05Uhr14.3 °C11 °C80.6 %0.1 km/hSüd-SW1.4 km/h1010.9 hPa0.0 mm0.0 mm/hwechselhaft
25.05.2024 - 21.10Uhr14.2 °C11 °C81.0 %0.0 km/hSüd-SW0.0 km/h1012.5 hPa0.0 mm0.0 mm/hwechselhaft
25.05.2024 - 21.15Uhr14.0 °C11 °C81.0 %0.8 km/hSüd-SW3.2 km/h1011.0 hPa0.0 mm0.0 mm/hwechselhaft
25.05.2024 - 21.20Uhr13.4 °C10 °C81.6 %0.2 km/hSüd-SW1.4 km/h1012.6 hPa0.0 mm0.0 mm/hwechselhaft
25.05.2024 - 21.25Uhr13.2 °C10 °C82.9 %0.1 km/hSüd-SW1.4 km/h1012.0 hPa0.0 mm0.0 mm/hwechselhaft
25.05.2024 - 21.30Uhr13.1 °C10 °C82.2 %3.0 km/hSüd-SW4.7 km/h1011.2 hPa0.0 mm0.0 mm/hwechselhaft
25.05.2024 - 21.35Uhr12.7 °C10 °C84.1 %2.8 km/hSüd-SW4.7 km/h1013.3 hPa0.0 mm0.0 mm/hwechselhaft
25.05.2024 - 21.40Uhr12.9 °C10 °C84.4 %0.8 km/hSüdwesten4.7 km/h1012.2 hPa0.0 mm0.0 mm/hwechselhaft
25.05.2024 - 21.45Uhr12.8 °C10 °C83.0 %1.9 km/hWest-SW4.7 km/h1012.9 hPa0.0 mm0.0 mm/hwechselhaft
25.05.2024 - 21.50Uhr12.8 °C10 °C82.0 %0.6 km/hWest-SW3.2 km/h1012.3 hPa0.0 mm0.0 mm/hwechselhaft
25.05.2024 - 21.55Uhr12.7 °C10 °C81.8 %0.3 km/hWest-SW1.4 km/h1002.4 hPa0.0 mm0.0 mm/hwechselhaft